sensor_id;sensor_type;location;lat;lon;timestamp;P1;durP1;ratioP1;P2;durP2;ratioP2
10132;SDS011;5106;50.926;7.080;2023-11-25T00:00:59;5.87;;;2.53;;
10132;SDS011;5106;50.926;7.080;2023-11-25T00:03:25;5.37;;;2.90;;
10132;SDS011;5106;50.926;7.080;2023-11-25T00:05:51;6.17;;;2.83;;
10132;SDS011;5106;50.926;7.080;2023-11-25T00:08:16;5.20;;;2.83;;
10132;SDS011;5106;50.926;7.080;2023-11-25T00:10:42;7.87;;;3.13;;
10132;SDS011;5106;50.926;7.080;2023-11-25T00:13:08;6.37;;;2.73;;
10132;SDS011;5106;50.926;7.080;2023-11-25T00:15:34;6.60;;;3.00;;
10132;SDS011;5106;50.926;7.080;2023-11-25T00:18:00;4.50;;;2.70;;
10132;SDS011;5106;50.926;7.080;2023-11-25T00:20:25;6.70;;;3.30;;
10132;SDS011;5106;50.926;7.080;2023-11-25T00:22:51;5.80;;;2.63;;
10132;SDS011;5106;50.926;7.080;2023-11-25T00:25:17;5.23;;;2.90;;
10132;SDS011;5106;50.926;7.080;2023-11-25T00:27:44;6.63;;;2.20;;
10132;SDS011;5106;50.926;7.080;2023-11-25T00:30:11;6.67;;;3.07;;
10132;SDS011;5106;50.926;7.080;2023-11-25T00:32:39;6.50;;;2.50;;
10132;SDS011;5106;50.926;7.080;2023-11-25T00:35:06;5.47;;;2.20;;
10132;SDS011;5106;50.926;7.080;2023-11-25T00:37:32;7.07;;;2.40;;
10132;SDS011;5106;50.926;7.080;2023-11-25T00:40:01;5.17;;;2.30;;
10132;SDS011;5106;50.926;7.080;2023-11-25T00:42:34;5.37;;;2.23;;
10132;SDS011;5106;50.926;7.080;2023-11-25T00:45:00;3.80;;;2.10;;
10132;SDS011;5106;50.926;7.080;2023-11-25T00:47:26;5.03;;;2.40;;
10132;SDS011;5106;50.926;7.080;2023-11-25T00:49:52;3.87;;;2.03;;
10132;SDS011;5106;50.926;7.080;2023-11-25T00:52:18;3.80;;;1.73;;
10132;SDS011;5106;50.926;7.080;2023-11-25T00:54:44;5.20;;;2.10;;
10132;SDS011;5106;50.926;7.080;2023-11-25T00:57:10;6.77;;;2.10;;
10132;SDS011;5106;50.926;7.080;2023-11-25T00:59:36;4.27;;;1.83;;
10132;SDS011;5106;50.926;7.080;2023-11-25T01:02:01;5.40;;;1.70;;
10132;SDS011;5106;50.926;7.080;2023-11-25T01:04:27;7.53;;;2.00;;
10132;SDS011;5106;50.926;7.080;2023-11-25T01:06:53;6.03;;;1.83;;
10132;SDS011;5106;50.926;7.080;2023-11-25T01:09:18;4.87;;;1.90;;
10132;SDS011;5106;50.926;7.080;2023-11-25T01:11:47;4.83;;;1.70;;
10132;SDS011;5106;50.926;7.080;2023-11-25T01:14:13;5.60;;;1.77;;
10132;SDS011;5106;50.926;7.080;2023-11-25T01:16:38;2.97;;;1.50;;
10132;SDS011;5106;50.926;7.080;2023-11-25T01:19:04;4.13;;;1.90;;
10132;SDS011;5106;50.926;7.080;2023-11-25T01:21:31;5.40;;;1.50;;
10132;SDS011;5106;50.926;7.080;2023-11-25T01:23:56;5.37;;;1.73;;
10132;SDS011;5106;50.926;7.080;2023-11-25T01:26:22;6.87;;;1.80;;
10132;SDS011;5106;50.926;7.080;2023-11-25T01:28:48;5.40;;;1.57;;
10132;SDS011;5106;50.926;7.080;2023-11-25T01:31:13;3.80;;;2.00;;
10132;SDS011;5106;50.926;7.080;2023-11-25T01:33:39;6.87;;;2.00;;
10132;SDS011;5106;50.926;7.080;2023-11-25T01:36:05;6.93;;;2.50;;
10132;SDS011;5106;50.926;7.080;2023-11-25T01:38:35;6.80;;;1.60;;
10132;SDS011;5106;50.926;7.080;2023-11-25T01:41:01;5.67;;;1.73;;
10132;SDS011;5106;50.926;7.080;2023-11-25T01:43:26;5.00;;;1.67;;
10132;SDS011;5106;50.926;7.080;2023-11-25T01:45:52;5.30;;;1.90;;
10132;SDS011;5106;50.926;7.080;2023-11-25T01:48:20;5.37;;;1.80;;
10132;SDS011;5106;50.926;7.080;2023-11-25T01:50:47;3.97;;;1.80;;
10132;SDS011;5106;50.926;7.080;2023-11-25T01:53:14;5.17;;;1.60;;
10132;SDS011;5106;50.926;7.080;2023-11-25T01:55:42;8.50;;;1.70;;
10132;SDS011;5106;50.926;7.080;2023-11-25T01:58:09;4.60;;;1.47;;
10132;SDS011;5106;50.926;7.080;2023-11-25T02:00:35;6.00;;;1.80;;
10132;SDS011;5106;50.926;7.080;2023-11-25T02:03:03;4.73;;;1.50;;
10132;SDS011;5106;50.926;7.080;2023-11-25T02:05:30;3.23;;;1.30;;
10132;SDS011;5106;50.926;7.080;2023-11-25T02:07:56;5.47;;;1.50;;
10132;SDS011;5106;50.926;7.080;2023-11-25T02:10:22;4.63;;;1.53;;
10132;SDS011;5106;50.926;7.080;2023-11-25T02:12:47;4.23;;;1.30;;
10132;SDS011;5106;50.926;7.080;2023-11-25T02:15:13;4.63;;;1.57;;
10132;SDS011;5106;50.926;7.080;2023-11-25T02:17:43;6.20;;;1.80;;
10132;SDS011;5106;50.926;7.080;2023-11-25T02:20:11;6.83;;;1.90;;
10132;SDS011;5106;50.926;7.080;2023-11-25T02:22:42;5.93;;;1.90;;
10132;SDS011;5106;50.926;7.080;2023-11-25T02:25:25;4.80;;;1.80;;
10132;SDS011;5106;50.926;7.080;2023-11-25T02:27:50;8.07;;;1.80;;
10132;SDS011;5106;50.926;7.080;2023-11-25T02:30:16;7.73;;;2.20;;
10132;SDS011;5106;50.926;7.080;2023-11-25T02:32:42;5.63;;;2.00;;
10132;SDS011;5106;50.926;7.080;2023-11-25T02:35:09;7.60;;;1.80;;
10132;SDS011;5106;50.926;7.080;2023-11-25T02:37:36;6.90;;;2.00;;
10132;SDS011;5106;50.926;7.080;2023-11-25T02:40:02;8.40;;;1.73;;
10132;SDS011;5106;50.926;7.080;2023-11-25T02:42:28;4.80;;;2.03;;
10132;SDS011;5106;50.926;7.080;2023-11-25T02:44:55;5.37;;;1.63;;
10132;SDS011;5106;50.926;7.080;2023-11-25T02:47:21;3.30;;;1.37;;
10132;SDS011;5106;50.926;7.080;2023-11-25T02:49:48;4.87;;;1.70;;
10132;SDS011;5106;50.926;7.080;2023-11-25T02:52:14;5.70;;;1.13;;
10132;SDS011;5106;50.926;7.080;2023-11-25T02:54:39;4.83;;;1.60;;
10132;SDS011;5106;50.926;7.080;2023-11-25T02:57:05;4.90;;;1.60;;
10132;SDS011;5106;50.926;7.080;2023-11-25T02:59:32;5.97;;;1.53;;
10132;SDS011;5106;50.926;7.080;2023-11-25T03:01:59;2.80;;;1.47;;
10132;SDS011;5106;50.926;7.080;2023-11-25T03:04:34;3.70;;;1.73;;
10132;SDS011;5106;50.926;7.080;2023-11-25T03:07:02;7.37;;;2.00;;
10132;SDS011;5106;50.926;7.080;2023-11-25T03:09:29;4.53;;;1.40;;
10132;SDS011;5106;50.926;7.080;2023-11-25T03:11:55;5.70;;;1.73;;
10132;SDS011;5106;50.926;7.080;2023-11-25T03:14:22;4.50;;;1.63;;
10132;SDS011;5106;50.926;7.080;2023-11-25T03:16:48;4.87;;;1.70;;
10132;SDS011;5106;50.926;7.080;2023-11-25T03:19:14;2.57;;;1.33;;
10132;SDS011;5106;50.926;7.080;2023-11-25T03:21:40;5.60;;;1.73;;
10132;SDS011;5106;50.926;7.080;2023-11-25T03:24:08;4.97;;;1.83;;
10132;SDS011;5106;50.926;7.080;2023-11-25T03:26:33;5.00;;;2.00;;
10132;SDS011;5106;50.926;7.080;2023-11-25T03:28:59;5.13;;;2.03;;
10132;SDS011;5106;50.926;7.080;2023-11-25T03:31:25;4.67;;;1.73;;
10132;SDS011;5106;50.926;7.080;2023-11-25T03:33:52;4.60;;;2.27;;
10132;SDS011;5106;50.926;7.080;2023-11-25T03:36:18;3.10;;;1.70;;
10132;SDS011;5106;50.926;7.080;2023-11-25T03:38:43;6.23;;;1.67;;
10132;SDS011;5106;50.926;7.080;2023-11-25T03:41:09;2.93;;;1.40;;
10132;SDS011;5106;50.926;7.080;2023-11-25T03:43:34;3.17;;;1.80;;
10132;SDS011;5106;50.926;7.080;2023-11-25T03:46:00;3.10;;;1.67;;
10132;SDS011;5106;50.926;7.080;2023-11-25T03:48:25;4.13;;;1.80;;
10132;SDS011;5106;50.926;7.080;2023-11-25T03:50:51;4.87;;;1.73;;
10132;SDS011;5106;50.926;7.080;2023-11-25T03:53:17;4.53;;;1.77;;
10132;SDS011;5106;50.926;7.080;2023-11-25T03:55:43;4.67;;;1.40;;
10132;SDS011;5106;50.926;7.080;2023-11-25T03:58:09;4.23;;;1.90;;
10132;SDS011;5106;50.926;7.080;2023-11-25T04:00:36;3.80;;;2.20;;
10132;SDS011;5106;50.926;7.080;2023-11-25T04:03:01;4.77;;;1.80;;
10132;SDS011;5106;50.926;7.080;2023-11-25T04:05:27;3.37;;;1.50;;
10132;SDS011;5106;50.926;7.080;2023-11-25T04:07:53;4.07;;;1.77;;
10132;SDS011;5106;50.926;7.080;2023-11-25T04:10:18;4.43;;;1.67;;
10132;SDS011;5106;50.926;7.080;2023-11-25T04:12:45;2.47;;;1.53;;
10132;SDS011;5106;50.926;7.080;2023-11-25T04:15:12;2.80;;;1.43;;
10132;SDS011;5106;50.926;7.080;2023-11-25T04:17:39;2.57;;;1.40;;
10132;SDS011;5106;50.926;7.080;2023-11-25T04:20:05;4.77;;;1.57;;
10132;SDS011;5106;50.926;7.080;2023-11-25T04:22:41;2.97;;;1.37;;
10132;SDS011;5106;50.926;7.080;2023-11-25T04:25:07;3.13;;;1.43;;
10132;SDS011;5106;50.926;7.080;2023-11-25T04:27:34;2.43;;;1.37;;
10132;SDS011;5106;50.926;7.080;2023-11-25T04:29:59;2.60;;;1.60;;
10132;SDS011;5106;50.926;7.080;2023-11-25T04:32:25;2.97;;;1.50;;
10132;SDS011;5106;50.926;7.080;2023-11-25T04:34:50;3.17;;;1.50;;
10132;SDS011;5106;50.926;7.080;2023-11-25T04:37:16;2.93;;;1.67;;
10132;SDS011;5106;50.926;7.080;2023-11-25T04:39:42;3.37;;;1.53;;
10132;SDS011;5106;50.926;7.080;2023-11-25T04:42:08;5.53;;;1.73;;
10132;SDS011;5106;50.926;7.080;2023-11-25T04:44:34;5.80;;;2.00;;
10132;SDS011;5106;50.926;7.080;2023-11-25T04:46:59;2.60;;;1.30;;
10132;SDS011;5106;50.926;7.080;2023-11-25T04:49:25;4.43;;;1.80;;
10132;SDS011;5106;50.926;7.080;2023-11-25T04:51:59;2.83;;;1.90;;
10132;SDS011;5106;50.926;7.080;2023-11-25T04:54:29;4.47;;;1.50;;
10132;SDS011;5106;50.926;7.080;2023-11-25T04:56:55;2.87;;;1.60;;
10132;SDS011;5106;50.926;7.080;2023-11-25T04:59:20;2.90;;;1.70;;
10132;SDS011;5106;50.926;7.080;2023-11-25T05:01:46;3.53;;;1.83;;
10132;SDS011;5106;50.926;7.080;2023-11-25T05:04:12;4.03;;;1.70;;
10132;SDS011;5106;50.926;7.080;2023-11-25T05:06:37;2.70;;;1.63;;
10132;SDS011;5106;50.926;7.080;2023-11-25T05:09:03;3.47;;;1.77;;
10132;SDS011;5106;50.926;7.080;2023-11-25T05:11:30;4.33;;;1.63;;
10132;SDS011;5106;50.926;7.080;2023-11-25T05:13:55;3.93;;;1.40;;
10132;SDS011;5106;50.926;7.080;2023-11-25T05:16:23;2.63;;;1.60;;
10132;SDS011;5106;50.926;7.080;2023-11-25T05:18:48;4.57;;;1.60;;
10132;SDS011;5106;50.926;7.080;2023-11-25T05:21:14;3.77;;;1.87;;
10132;SDS011;5106;50.926;7.080;2023-11-25T05:23:40;5.50;;;2.00;;
10132;SDS011;5106;50.926;7.080;2023-11-25T05:26:05;4.20;;;1.67;;
10132;SDS011;5106;50.926;7.080;2023-11-25T05:28:32;2.80;;;1.70;;
10132;SDS011;5106;50.926;7.080;2023-11-25T05:30:58;3.47;;;1.50;;
10132;SDS011;5106;50.926;7.080;2023-11-25T05:33:24;3.40;;;1.87;;
10132;SDS011;5106;50.926;7.080;2023-11-25T05:35:50;3.30;;;1.77;;
10132;SDS011;5106;50.926;7.080;2023-11-25T05:38:15;3.60;;;1.53;;
10132;SDS011;5106;50.926;7.080;2023-11-25T05:40:43;3.90;;;1.50;;
10132;SDS011;5106;50.926;7.080;2023-11-25T05:43:08;7.07;;;2.10;;
10132;SDS011;5106;50.926;7.080;2023-11-25T05:45:34;4.10;;;1.60;;
10132;SDS011;5106;50.926;7.080;2023-11-25T05:48:04;4.57;;;1.60;;
10132;SDS011;5106;50.926;7.080;2023-11-25T05:50:29;2.73;;;1.50;;
10132;SDS011;5106;50.926;7.080;2023-11-25T05:52:55;4.27;;;1.87;;
10132;SDS011;5106;50.926;7.080;2023-11-25T05:55:21;3.63;;;2.10;;
10132;SDS011;5106;50.926;7.080;2023-11-25T05:57:46;3.23;;;1.57;;
10132;SDS011;5106;50.926;7.080;2023-11-25T06:00:15;2.80;;;1.70;;
10132;SDS011;5106;50.926;7.080;2023-11-25T06:02:41;4.73;;;1.80;;
10132;SDS011;5106;50.926;7.080;2023-11-25T06:05:07;4.13;;;1.77;;
10132;SDS011;5106;50.926;7.080;2023-11-25T06:07:34;3.83;;;1.67;;
10132;SDS011;5106;50.926;7.080;2023-11-25T06:09:59;5.67;;;1.73;;
10132;SDS011;5106;50.926;7.080;2023-11-25T06:12:25;5.03;;;2.00;;
10132;SDS011;5106;50.926;7.080;2023-11-25T06:14:51;5.07;;;1.80;;
10132;SDS011;5106;50.926;7.080;2023-11-25T06:17:20;3.60;;;1.90;;
10132;SDS011;5106;50.926;7.080;2023-11-25T06:19:48;5.33;;;1.93;;
10132;SDS011;5106;50.926;7.080;2023-11-25T06:22:14;2.73;;;1.60;;
10132;SDS011;5106;50.926;7.080;2023-11-25T06:24:39;3.77;;;1.90;;
10132;SDS011;5106;50.926;7.080;2023-11-25T06:27:05;4.70;;;1.57;;
10132;SDS011;5106;50.926;7.080;2023-11-25T06:29:31;5.03;;;1.90;;
10132;SDS011;5106;50.926;7.080;2023-11-25T06:31:57;5.03;;;2.00;;
10132;SDS011;5106;50.926;7.080;2023-11-25T06:34:22;6.17;;;2.10;;
10132;SDS011;5106;50.926;7.080;2023-11-25T06:36:48;10.57;;;2.57;;
10132;SDS011;5106;50.926;7.080;2023-11-25T06:39:14;9.70;;;2.90;;
10132;SDS011;5106;50.926;7.080;2023-11-25T06:41:45;13.23;;;3.00;;
10132;SDS011;5106;50.926;7.080;2023-11-25T06:44:17;9.50;;;2.30;;
10132;SDS011;5106;50.926;7.080;2023-11-25T06:46:43;11.07;;;2.40;;
10132;SDS011;5106;50.926;7.080;2023-11-25T06:49:09;10.13;;;2.10;;
10132;SDS011;5106;50.926;7.080;2023-11-25T06:51:37;10.17;;;2.27;;
10132;SDS011;5106;50.926;7.080;2023-11-25T06:54:04;7.30;;;2.23;;
10132;SDS011;5106;50.926;7.080;2023-11-25T06:56:30;10.93;;;1.93;;
10132;SDS011;5106;50.926;7.080;2023-11-25T06:58:58;11.20;;;2.33;;
10132;SDS011;5106;50.926;7.080;2023-11-25T07:01:24;11.17;;;2.80;;
10132;SDS011;5106;50.926;7.080;2023-11-25T07:03:49;8.80;;;2.73;;
10132;SDS011;5106;50.926;7.080;2023-11-25T07:06:15;10.57;;;2.60;;
10132;SDS011;5106;50.926;7.080;2023-11-25T07:08:43;10.47;;;2.50;;
10132;SDS011;5106;50.926;7.080;2023-11-25T07:11:09;11.17;;;2.43;;
10132;SDS011;5106;50.926;7.080;2023-11-25T07:13:36;7.93;;;2.07;;
10132;SDS011;5106;50.926;7.080;2023-11-25T07:16:01;17.80;;;3.30;;
10132;SDS011;5106;50.926;7.080;2023-11-25T07:18:31;5.73;;;2.37;;
10132;SDS011;5106;50.926;7.080;2023-11-25T07:20:57;7.00;;;2.50;;
10132;SDS011;5106;50.926;7.080;2023-11-25T07:23:23;9.47;;;3.03;;
10132;SDS011;5106;50.926;7.080;2023-11-25T07:25:48;11.63;;;2.80;;
10132;SDS011;5106;50.926;7.080;2023-11-25T07:28:14;8.50;;;2.93;;
10132;SDS011;5106;50.926;7.080;2023-11-25T07:30:41;7.37;;;2.67;;
10132;SDS011;5106;50.926;7.080;2023-11-25T07:33:07;8.30;;;2.27;;
10132;SDS011;5106;50.926;7.080;2023-11-25T07:35:33;12.07;;;2.73;;
10132;SDS011;5106;50.926;7.080;2023-11-25T07:37:59;11.67;;;3.03;;
10132;SDS011;5106;50.926;7.080;2023-11-25T07:40:25;14.73;;;2.77;;
10132;SDS011;5106;50.926;7.080;2023-11-25T07:42:51;12.97;;;2.97;;
10132;SDS011;5106;50.926;7.080;2023-11-25T07:45:17;8.93;;;2.87;;
10132;SDS011;5106;50.926;7.080;2023-11-25T07:47:42;12.27;;;2.97;;
10132;SDS011;5106;50.926;7.080;2023-11-25T07:50:10;12.00;;;2.93;;
10132;SDS011;5106;50.926;7.080;2023-11-25T07:52:36;10.13;;;2.40;;
10132;SDS011;5106;50.926;7.080;2023-11-25T07:55:03;10.50;;;2.27;;
10132;SDS011;5106;50.926;7.080;2023-11-25T07:57:32;7.20;;;2.20;;
10132;SDS011;5106;50.926;7.080;2023-11-25T07:59:58;10.70;;;2.83;;
10132;SDS011;5106;50.926;7.080;2023-11-25T08:02:24;10.03;;;2.80;;
10132;SDS011;5106;50.926;7.080;2023-11-25T08:04:50;8.73;;;2.37;;
10132;SDS011;5106;50.926;7.080;2023-11-25T08:07:16;9.77;;;2.87;;
10132;SDS011;5106;50.926;7.080;2023-11-25T08:09:42;7.23;;;2.60;;
10132;SDS011;5106;50.926;7.080;2023-11-25T08:12:08;10.00;;;2.43;;
10132;SDS011;5106;50.926;7.080;2023-11-25T08:14:34;8.00;;;2.43;;
10132;SDS011;5106;50.926;7.080;2023-11-25T08:17:03;11.50;;;2.97;;
10132;SDS011;5106;50.926;7.080;2023-11-25T08:19:29;8.13;;;2.83;;
10132;SDS011;5106;50.926;7.080;2023-11-25T08:21:55;5.80;;;1.90;;
10132;SDS011;5106;50.926;7.080;2023-11-25T08:24:21;10.53;;;2.43;;
10132;SDS011;5106;50.926;7.080;2023-11-25T08:26:48;11.63;;;2.83;;
10132;SDS011;5106;50.926;7.080;2023-11-25T08:29:14;8.07;;;2.50;;
10132;SDS011;5106;50.926;7.080;2023-11-25T08:31:40;6.97;;;2.10;;
10132;SDS011;5106;50.926;7.080;2023-11-25T08:34:06;4.90;;;2.23;;
10132;SDS011;5106;50.926;7.080;2023-11-25T08:36:37;7.87;;;2.07;;
10132;SDS011;5106;50.926;7.080;2023-11-25T08:39:19;23.90;;;3.60;;
10132;SDS011;5106;50.926;7.080;2023-11-25T08:41:51;6.27;;;2.27;;
10132;SDS011;5106;50.926;7.080;2023-11-25T08:44:18;5.43;;;1.70;;
10132;SDS011;5106;50.926;7.080;2023-11-25T08:46:44;9.07;;;2.30;;
10132;SDS011;5106;50.926;7.080;2023-11-25T08:49:10;8.20;;;2.30;;
10132;SDS011;5106;50.926;7.080;2023-11-25T08:51:39;9.63;;;2.07;;
10132;SDS011;5106;50.926;7.080;2023-11-25T08:54:05;7.90;;;2.30;;
10132;SDS011;5106;50.926;7.080;2023-11-25T08:56:31;13.53;;;2.50;;
10132;SDS011;5106;50.926;7.080;2023-11-25T08:59:00;8.00;;;2.07;;
10132;SDS011;5106;50.926;7.080;2023-11-25T09:01:29;7.77;;;2.00;;
10132;SDS011;5106;50.926;7.080;2023-11-25T09:04:01;10.20;;;2.00;;
10132;SDS011;5106;50.926;7.080;2023-11-25T09:06:27;6.27;;;2.37;;
10132;SDS011;5106;50.926;7.080;2023-11-25T09:08:55;5.53;;;2.13;;
10132;SDS011;5106;50.926;7.080;2023-11-25T09:11:21;4.93;;;1.70;;
10132;SDS011;5106;50.926;7.080;2023-11-25T09:13:46;6.87;;;1.90;;
10132;SDS011;5106;50.926;7.080;2023-11-25T09:16:12;8.87;;;2.43;;
10132;SDS011;5106;50.926;7.080;2023-11-25T09:18:39;7.60;;;1.83;;
10132;SDS011;5106;50.926;7.080;2023-11-25T09:21:05;7.20;;;1.90;;
10132;SDS011;5106;50.926;7.080;2023-11-25T09:23:30;10.60;;;2.23;;
10132;SDS011;5106;50.926;7.080;2023-11-25T09:25:56;5.33;;;2.00;;
10132;SDS011;5106;50.926;7.080;2023-11-25T09:28:22;6.80;;;2.20;;
10132;SDS011;5106;50.926;7.080;2023-11-25T09:30:47;11.13;;;3.05;;
10132;SDS011;5106;50.926;7.080;2023-11-25T09:33:13;12.30;;;2.70;;
10132;SDS011;5106;50.926;7.080;2023-11-25T09:35:38;9.13;;;3.00;;
10132;SDS011;5106;50.926;7.080;2023-11-25T09:38:04;6.63;;;2.47;;
10132;SDS011;5106;50.926;7.080;2023-11-25T09:40:30;6.63;;;2.13;;
10132;SDS011;5106;50.926;7.080;2023-11-25T09:42:55;6.77;;;2.17;;
10132;SDS011;5106;50.926;7.080;2023-11-25T09:45:21;6.73;;;2.50;;
10132;SDS011;5106;50.926;7.080;2023-11-25T09:47:53;8.57;;;2.30;;
10132;SDS011;5106;50.926;7.080;2023-11-25T09:50:19;8.57;;;2.57;;
10132;SDS011;5106;50.926;7.080;2023-11-25T09:52:50;6.97;;;2.63;;
10132;SDS011;5106;50.926;7.080;2023-11-25T09:55:17;7.20;;;2.17;;
10132;SDS011;5106;50.926;7.080;2023-11-25T09:57:44;9.23;;;2.27;;
10132;SDS011;5106;50.926;7.080;2023-11-25T10:00:13;6.30;;;2.00;;
10132;SDS011;5106;50.926;7.080;2023-11-25T10:02:42;5.27;;;1.93;;
10132;SDS011;5106;50.926;7.080;2023-11-25T10:05:18;8.17;;;2.07;;
10132;SDS011;5106;50.926;7.080;2023-11-25T10:07:44;8.53;;;2.53;;
10132;SDS011;5106;50.926;7.080;2023-11-25T10:10:10;13.20;;;2.23;;
10132;SDS011;5106;50.926;7.080;2023-11-25T10:12:39;9.00;;;2.67;;
10132;SDS011;5106;50.926;7.080;2023-11-25T10:15:05;6.97;;;2.20;;
10132;SDS011;5106;50.926;7.080;2023-11-25T10:17:32;10.57;;;2.77;;
10132;SDS011;5106;50.926;7.080;2023-11-25T10:22:42;8.10;;;2.50;;
10132;SDS011;5106;50.926;7.080;2023-11-25T10:25:10;4.87;;;2.70;;
10132;SDS011;5106;50.926;7.080;2023-11-25T10:27:36;10.13;;;3.10;;
10132;SDS011;5106;50.926;7.080;2023-11-25T10:30:03;5.80;;;2.47;;
10132;SDS011;5106;50.926;7.080;2023-11-25T10:32:31;5.60;;;2.60;;
10132;SDS011;5106;50.926;7.080;2023-11-25T10:34:59;10.43;;;2.87;;
10132;SDS011;5106;50.926;7.080;2023-11-25T10:37:25;5.80;;;2.40;;
10132;SDS011;5106;50.926;7.080;2023-11-25T10:39:53;5.40;;;2.23;;
10132;SDS011;5106;50.926;7.080;2023-11-25T10:42:20;9.00;;;2.60;;
10132;SDS011;5106;50.926;7.080;2023-11-25T10:44:46;8.70;;;2.20;;
10132;SDS011;5106;50.926;7.080;2023-11-25T10:47:29;7.80;;;2.57;;
10132;SDS011;5106;50.926;7.080;2023-11-25T10:49:56;6.30;;;2.30;;
10132;SDS011;5106;50.926;7.080;2023-11-25T10:52:22;6.53;;;2.03;;
10132;SDS011;5106;50.926;7.080;2023-11-25T10:54:48;9.27;;;2.03;;
10132;SDS011;5106;50.926;7.080;2023-11-25T10:57:17;6.77;;;2.20;;
10132;SDS011;5106;50.926;7.080;2023-11-25T10:59:43;6.37;;;2.13;;
10132;SDS011;5106;50.926;7.080;2023-11-25T11:02:13;5.70;;;1.77;;
10132;SDS011;5106;50.926;7.080;2023-11-25T11:04:55;8.30;;;2.27;;
10132;SDS011;5106;50.926;7.080;2023-11-25T11:07:23;10.90;;;1.93;;
10132;SDS011;5106;50.926;7.080;2023-11-25T11:09:51;3.43;;;1.63;;
10132;SDS011;5106;50.926;7.080;2023-11-25T11:12:26;6.90;;;2.00;;
10132;SDS011;5106;50.926;7.080;2023-11-25T11:14:56;8.53;;;1.97;;
10132;SDS011;5106;50.926;7.080;2023-11-25T11:20:05;7.07;;;2.13;;
10132;SDS011;5106;50.926;7.080;2023-11-25T11:22:37;7.80;;;2.47;;
10132;SDS011;5106;50.926;7.080;2023-11-25T11:30:31;7.87;;;1.70;;
10132;SDS011;5106;50.926;7.080;2023-11-25T11:33:11;5.57;;;2.33;;
10132;SDS011;5106;50.926;7.080;2023-11-25T11:35:39;9.47;;;1.67;;
10132;SDS011;5106;50.926;7.080;2023-11-25T11:40:59;5.97;;;1.60;;
10132;SDS011;5106;50.926;7.080;2023-11-25T11:43:33;5.77;;;1.63;;
10132;SDS011;5106;50.926;7.080;2023-11-25T11:45:58;4.23;;;1.50;;
10132;SDS011;5106;50.926;7.080;2023-11-25T11:48:25;4.77;;;1.50;;
10132;SDS011;5106;50.926;7.080;2023-11-25T11:50:51;5.73;;;2.10;;
10132;SDS011;5106;50.926;7.080;2023-11-25T11:53:19;5.63;;;1.80;;
10132;SDS011;5106;50.926;7.080;2023-11-25T11:59:07;4.47;;;1.60;;
10132;SDS011;5106;50.926;7.080;2023-11-25T12:01:33;4.40;;;1.90;;
10132;SDS011;5106;50.926;7.080;2023-11-25T12:03:59;6.30;;;2.20;;
10132;SDS011;5106;50.926;7.080;2023-11-25T12:06:26;4.10;;;1.70;;
10132;SDS011;5106;50.926;7.080;2023-11-25T12:08:52;7.33;;;1.93;;
10132;SDS011;5106;50.926;7.080;2023-11-25T12:11:19;5.90;;;2.10;;
10132;SDS011;5106;50.926;7.080;2023-11-25T12:13:44;5.27;;;2.20;;
10132;SDS011;5106;50.926;7.080;2023-11-25T12:16:10;4.73;;;1.67;;
10132;SDS011;5106;50.926;7.080;2023-11-25T12:18:36;3.63;;;1.57;;
10132;SDS011;5106;50.926;7.080;2023-11-25T12:21:02;3.60;;;2.10;;
10132;SDS011;5106;50.926;7.080;2023-11-25T12:23:30;6.57;;;2.00;;
10132;SDS011;5106;50.926;7.080;2023-11-25T12:25:57;5.43;;;2.33;;
10132;SDS011;5106;50.926;7.080;2023-11-25T12:28:23;6.17;;;1.67;;
10132;SDS011;5106;50.926;7.080;2023-11-25T12:30:49;3.40;;;1.60;;
10132;SDS011;5106;50.926;7.080;2023-11-25T12:33:18;4.20;;;1.57;;
10132;SDS011;5106;50.926;7.080;2023-11-25T12:35:44;3.83;;;2.03;;
10132;SDS011;5106;50.926;7.080;2023-11-25T12:38:10;5.87;;;1.67;;
10132;SDS011;5106;50.926;7.080;2023-11-25T12:40:36;3.90;;;1.63;;
10132;SDS011;5106;50.926;7.080;2023-11-25T12:43:06;6.20;;;1.70;;
10132;SDS011;5106;50.926;7.080;2023-11-25T12:45:36;3.40;;;1.60;;
10132;SDS011;5106;50.926;7.080;2023-11-25T12:48:07;4.50;;;1.30;;
10132;SDS011;5106;50.926;7.080;2023-11-25T12:53:35;9.50;;;2.30;;
10132;SDS011;5106;50.926;7.080;2023-11-25T12:56:17;5.60;;;1.70;;
10132;SDS011;5106;50.926;7.080;2023-11-25T12:58:43;4.33;;;1.30;;
10132;SDS011;5106;50.926;7.080;2023-11-25T13:01:09;7.17;;;1.77;;
10132;SDS011;5106;50.926;7.080;2023-11-25T13:03:35;7.50;;;1.90;;
10132;SDS011;5106;50.926;7.080;2023-11-25T13:08:33;6.50;;;2.10;;
10132;SDS011;5106;50.926;7.080;2023-11-25T13:11:03;7.37;;;2.30;;
10132;SDS011;5106;50.926;7.080;2023-11-25T13:13:31;7.17;;;2.10;;
10132;SDS011;5106;50.926;7.080;2023-11-25T13:15:58;7.37;;;2.00;;
10132;SDS011;5106;50.926;7.080;2023-11-25T13:18:24;10.63;;;2.23;;
10132;SDS011;5106;50.926;7.080;2023-11-25T13:20:54;4.30;;;1.67;;
10132;SDS011;5106;50.926;7.080;2023-11-25T13:23:20;7.50;;;2.03;;
10132;SDS011;5106;50.926;7.080;2023-11-25T13:25:46;10.87;;;2.10;;
10132;SDS011;5106;50.926;7.080;2023-11-25T13:28:13;6.20;;;1.70;;
10132;SDS011;5106;50.926;7.080;2023-11-25T13:30:39;8.03;;;1.50;;
10132;SDS011;5106;50.926;7.080;2023-11-25T13:33:08;5.57;;;1.73;;
10132;SDS011;5106;50.926;7.080;2023-11-25T13:35:34;6.43;;;1.93;;
10132;SDS011;5106;50.926;7.080;2023-11-25T13:38:02;8.83;;;1.83;;
10132;SDS011;5106;50.926;7.080;2023-11-25T13:40:31;10.30;;;1.80;;
10132;SDS011;5106;50.926;7.080;2023-11-25T13:43:02;6.10;;;1.70;;
10132;SDS011;5106;50.926;7.080;2023-11-25T13:45:34;4.87;;;1.30;;
10132;SDS011;5106;50.926;7.080;2023-11-25T13:48:00;9.93;;;1.67;;
10132;SDS011;5106;50.926;7.080;2023-11-25T13:50:30;6.03;;;1.50;;
10132;SDS011;5106;50.926;7.080;2023-11-25T13:52:56;6.37;;;1.40;;
10132;SDS011;5106;50.926;7.080;2023-11-25T13:55:22;6.07;;;1.87;;
10132;SDS011;5106;50.926;7.080;2023-11-25T13:57:48;4.17;;;1.57;;
10132;SDS011;5106;50.926;7.080;2023-11-25T14:00:17;4.17;;;1.30;;
10132;SDS011;5106;50.926;7.080;2023-11-25T14:02:44;4.60;;;1.57;;
10132;SDS011;5106;50.926;7.080;2023-11-25T14:05:11;7.07;;;1.93;;
10132;SDS011;5106;50.926;7.080;2023-11-25T14:07:38;7.37;;;1.87;;
10132;SDS011;5106;50.926;7.080;2023-11-25T14:12:56;5.97;;;1.70;;
10132;SDS011;5106;50.926;7.080;2023-11-25T14:15:22;4.87;;;1.77;;
10132;SDS011;5106;50.926;7.080;2023-11-25T14:17:47;6.20;;;1.63;;
10132;SDS011;5106;50.926;7.080;2023-11-25T14:20:13;6.47;;;1.80;;
10132;SDS011;5106;50.926;7.080;2023-11-25T14:22:42;9.33;;;1.90;;
10132;SDS011;5106;50.926;7.080;2023-11-25T14:25:09;7.03;;;2.13;;
10132;SDS011;5106;50.926;7.080;2023-11-25T14:27:36;7.90;;;2.27;;
10132;SDS011;5106;50.926;7.080;2023-11-25T14:30:01;7.00;;;1.70;;
10132;SDS011;5106;50.926;7.080;2023-11-25T14:32:28;8.43;;;1.97;;
10132;SDS011;5106;50.926;7.080;2023-11-25T14:34:54;8.63;;;2.10;;
10132;SDS011;5106;50.926;7.080;2023-11-25T14:37:19;7.53;;;2.20;;
10132;SDS011;5106;50.926;7.080;2023-11-25T14:39:46;5.70;;;1.80;;
10132;SDS011;5106;50.926;7.080;2023-11-25T14:42:11;8.63;;;2.27;;
10132;SDS011;5106;50.926;7.080;2023-11-25T14:44:37;4.50;;;1.70;;
10132;SDS011;5106;50.926;7.080;2023-11-25T14:47:04;7.50;;;1.90;;
10132;SDS011;5106;50.926;7.080;2023-11-25T14:49:30;14.90;;;2.20;;
10132;SDS011;5106;50.926;7.080;2023-11-25T14:51:55;6.10;;;1.90;;
10132;SDS011;5106;50.926;7.080;2023-11-25T14:54:21;6.10;;;2.20;;
10132;SDS011;5106;50.926;7.080;2023-11-25T14:56:48;7.73;;;1.80;;
10132;SDS011;5106;50.926;7.080;2023-11-25T14:59:14;2.93;;;1.80;;
10132;SDS011;5106;50.926;7.080;2023-11-25T15:01:42;5.20;;;2.13;;
10132;SDS011;5106;50.926;7.080;2023-11-25T15:04:11;4.50;;;1.70;;
10132;SDS011;5106;50.926;7.080;2023-11-25T15:06:39;4.17;;;1.70;;
10132;SDS011;5106;50.926;7.080;2023-11-25T15:09:05;3.23;;;1.77;;
10132;SDS011;5106;50.926;7.080;2023-11-25T15:11:32;4.67;;;1.80;;
10132;SDS011;5106;50.926;7.080;2023-11-25T15:13:57;4.27;;;1.57;;
10132;SDS011;5106;50.926;7.080;2023-11-25T15:16:23;3.33;;;2.03;;
10132;SDS011;5106;50.926;7.080;2023-11-25T15:18:49;6.87;;;2.03;;
10132;SDS011;5106;50.926;7.080;2023-11-25T15:21:18;3.70;;;1.87;;
10132;SDS011;5106;50.926;7.080;2023-11-25T15:23:47;9.67;;;1.90;;